sensor_id;sensor_type;location;lat;lon;timestamp;pressure;altitude;pressure_sealevel;temperature;humidity
32733;BME280;11867;51.198;11.966;2023-05-03T00:00:26;101644.50;;;10.39;68.57
32733;BME280;11867;51.198;11.966;2023-05-03T00:01:28;101638.56;;;10.42;68.31
32733;BME280;11867;51.198;11.966;2023-05-03T00:02:31;101635.34;;;10.45;68.09
32733;BME280;11867;51.198;11.966;2023-05-03T00:03:33;101641.03;;;10.43;68.08
32733;BME280;11867;51.198;11.966;2023-05-03T00:04:35;101640.03;;;10.33;68.14
32733;BME280;11867;51.198;11.966;2023-05-03T00:05:38;101639.03;;;10.22;68.78
32733;BME280;11867;51.198;11.966;2023-05-03T00:06:42;101639.78;;;9.88;70.80
32733;BME280;11867;51.198;11.966;2023-05-03T00:07:45;101645.72;;;9.85;71.49
32733;BME280;11867;51.198;11.966;2023-05-03T00:08:49;101644.53;;;9.81;71.69
32733;BME280;11867;51.198;11.966;2023-05-03T00:09:51;101646.03;;;9.72;72.12
32733;BME280;11867;51.198;11.966;2023-05-03T00:10:58;101638.91;;;9.71;72.24
32733;BME280;11867;51.198;11.966;2023-05-03T00:12:00;101636.63;;;9.51;72.57
32733;BME280;11867;51.198;11.966;2023-05-03T00:13:03;101641.03;;;9.69;72.03
32733;BME280;11867;51.198;11.966;2023-05-03T00:14:05;101635.78;;;9.79;71.71
32733;BME280;11867;51.198;11.966;2023-05-03T00:15:09;101633.72;;;9.69;71.84
32733;BME280;11867;51.198;11.966;2023-05-03T00:16:11;101640.03;;;9.87;71.10
32733;BME280;11867;51.198;11.966;2023-05-03T00:17:14;101639.41;;;9.97;70.75
32733;BME280;11867;51.198;11.966;2023-05-03T00:18:16;101644.28;;;9.95;70.21
32733;BME280;11867;51.198;11.966;2023-05-03T00:19:19;101637.75;;;9.67;70.53
32733;BME280;11867;51.198;11.966;2023-05-03T00:20:32;101632.19;;;9.33;72.15
32733;BME280;11867;51.198;11.966;2023-05-03T00:21:35;101635.88;;;9.15;72.66
32733;BME280;11867;51.198;11.966;2023-05-03T00:22:37;101632.19;;;9.33;72.50
32733;BME280;11867;51.198;11.966;2023-05-03T00:23:39;101631.06;;;9.46;72.30
32733;BME280;11867;51.198;11.966;2023-05-03T00:24:43;101635.16;;;9.20;73.47
32733;BME280;11867;51.198;11.966;2023-05-03T00:25:46;101633.31;;;8.73;75.11
32733;BME280;11867;51.198;11.966;2023-05-03T00:26:52;101631.06;;;8.82;75.29
32733;BME280;11867;51.198;11.966;2023-05-03T00:27:55;101638.03;;;8.78;75.59
32733;BME280;11867;51.198;11.966;2023-05-03T00:28:58;101635.31;;;8.42;77.06
32733;BME280;11867;51.198;11.966;2023-05-03T00:30:01;101630.41;;;8.33;78.30
32733;BME280;11867;51.198;11.966;2023-05-03T00:31:07;101630.94;;;8.53;77.29
32733;BME280;11867;51.198;11.966;2023-05-03T00:32:10;101623.59;;;8.54;76.94
32733;BME280;11867;51.198;11.966;2023-05-03T00:33:12;101631.56;;;8.79;76.15
32733;BME280;11867;51.198;11.966;2023-05-03T00:34:15;101635.56;;;8.88;75.70
32733;BME280;11867;51.198;11.966;2023-05-03T00:35:17;101628.22;;;8.88;75.06
32733;BME280;11867;51.198;11.966;2023-05-03T00:36:20;101628.06;;;9.07;74.18
32733;BME280;11867;51.198;11.966;2023-05-03T00:37:22;101628.78;;;9.14;73.76
32733;BME280;11867;51.198;11.966;2023-05-03T00:38:25;101623.34;;;9.14;73.72
32733;BME280;11867;51.198;11.966;2023-05-03T00:39:27;101628.84;;;8.79;75.15
32733;BME280;11867;51.198;11.966;2023-05-03T00:40:32;101630.34;;;8.51;76.47
32733;BME280;11867;51.198;11.966;2023-05-03T00:41:34;101621.06;;;8.28;77.66
32733;BME280;11867;51.198;11.966;2023-05-03T00:42:37;101625.47;;;8.29;78.43
32733;BME280;11867;51.198;11.966;2023-05-03T00:43:39;101626.41;;;7.81;81.69
32733;BME280;11867;51.198;11.966;2023-05-03T00:44:42;101628.50;;;7.31;84.64
32733;BME280;11867;51.198;11.966;2023-05-03T00:45:44;101625.28;;;6.85;87.25
32733;BME280;11867;51.198;11.966;2023-05-03T00:46:48;101621.50;;;6.86;88.60
32733;BME280;11867;51.198;11.966;2023-05-03T00:47:50;101623.00;;;7.19;87.04
32733;BME280;11867;51.198;11.966;2023-05-03T00:48:53;101621.19;;;6.76;87.27
32733;BME280;11867;51.198;11.966;2023-05-03T00:49:55;101618.56;;;6.44;89.13
32733;BME280;11867;51.198;11.966;2023-05-03T00:50:59;101620.31;;;6.57;89.14
32733;BME280;11867;51.198;11.966;2023-05-03T00:52:01;101623.88;;;6.32;89.97
32733;BME280;11867;51.198;11.966;2023-05-03T00:53:04;101621.06;;;6.45;90.37
32733;BME280;11867;51.198;11.966;2023-05-03T00:54:07;101620.22;;;6.70;89.90
32733;BME280;11867;51.198;11.966;2023-05-03T00:55:10;101617.88;;;7.11;88.50
32733;BME280;11867;51.198;11.966;2023-05-03T00:56:16;101620.56;;;7.47;87.09
32733;BME280;11867;51.198;11.966;2023-05-03T00:57:22;101620.69;;;7.71;85.51
32733;BME280;11867;51.198;11.966;2023-05-03T00:58:25;101629.28;;;7.98;83.77
32733;BME280;11867;51.198;11.966;2023-05-03T00:59:27;101613.31;;;7.90;83.49
32733;BME280;11867;51.198;11.966;2023-05-03T01:00:30;101615.44;;;7.88;83.16
32733;BME280;11867;51.198;11.966;2023-05-03T01:01:32;101613.34;;;8.02;82.31
32733;BME280;11867;51.198;11.966;2023-05-03T01:02:35;101608.66;;;8.09;81.51
32733;BME280;11867;51.198;11.966;2023-05-03T01:03:38;101612.19;;;8.09;81.58
32733;BME280;11867;51.198;11.966;2023-05-03T01:04:43;101612.41;;;7.96;82.02
32733;BME280;11867;51.198;11.966;2023-05-03T01:05:52;101611.97;;;7.69;82.67
32733;BME280;11867;51.198;11.966;2023-05-03T01:07:07;101608.28;;;7.63;82.50
32733;BME280;11867;51.198;11.966;2023-05-03T01:08:19;101613.84;;;7.50;83.07
32733;BME280;11867;51.198;11.966;2023-05-03T01:09:30;101619.25;;;7.38;83.19
32733;BME280;11867;51.198;11.966;2023-05-03T01:10:40;101612.72;;;7.09;85.28
32733;BME280;11867;51.198;11.966;2023-05-03T01:11:47;101616.59;;;7.32;84.88
32733;BME280;11867;51.198;11.966;2023-05-03T01:13:00;101612.31;;;7.42;84.19
32733;BME280;11867;51.198;11.966;2023-05-03T01:14:14;101608.53;;;6.88;86.28
32733;BME280;11867;51.198;11.966;2023-05-03T01:15:32;101614.31;;;6.73;87.80
32733;BME280;11867;51.198;11.966;2023-05-03T01:16:39;101614.63;;;6.65;88.39
32733;BME280;11867;51.198;11.966;2023-05-03T01:17:49;101614.28;;;6.55;89.69
32733;BME280;11867;51.198;11.966;2023-05-03T01:18:53;101614.72;;;6.95;88.72
32733;BME280;11867;51.198;11.966;2023-05-03T01:20:04;101615.78;;;7.31;87.08
32733;BME280;11867;51.198;11.966;2023-05-03T01:21:09;101611.84;;;7.45;85.77
32733;BME280;11867;51.198;11.966;2023-05-03T01:22:16;101612.31;;;7.05;86.78
32733;BME280;11867;51.198;11.966;2023-05-03T01:23:28;101607.59;;;7.01;88.13
32733;BME280;11867;51.198;11.966;2023-05-03T01:24:34;101614.34;;;7.10;87.88
32733;BME280;11867;51.198;11.966;2023-05-03T01:25:39;101615.13;;;7.17;87.56
32733;BME280;11867;51.198;11.966;2023-05-03T01:26:42;101611.72;;;7.03;88.17
32733;BME280;11867;51.198;11.966;2023-05-03T01:27:44;101610.66;;;6.86;88.42
32733;BME280;11867;51.198;11.966;2023-05-03T01:28:47;101619.66;;;6.61;90.03
32733;BME280;11867;51.198;11.966;2023-05-03T01:29:49;101621.38;;;6.56;90.41
32733;BME280;11867;51.198;11.966;2023-05-03T01:30:53;101627.91;;;6.48;91.70
32733;BME280;11867;51.198;11.966;2023-05-03T01:31:59;101625.88;;;6.43;91.66
32733;BME280;11867;51.198;11.966;2023-05-03T01:33:04;101623.13;;;6.69;91.22
32733;BME280;11867;51.198;11.966;2023-05-03T01:34:20;101618.66;;;6.99;89.34
32733;BME280;11867;51.198;11.966;2023-05-03T01:35:28;101619.56;;;7.12;88.42
32733;BME280;11867;51.198;11.966;2023-05-03T01:36:30;101622.34;;;6.61;90.08
32733;BME280;11867;51.198;11.966;2023-05-03T01:37:34;101630.66;;;6.66;90.39
32733;BME280;11867;51.198;11.966;2023-05-03T01:38:37;101631.81;;;6.77;90.28
32733;BME280;11867;51.198;11.966;2023-05-03T01:39:44;101621.66;;;6.91;89.15
32733;BME280;11867;51.198;11.966;2023-05-03T01:40:51;101627.09;;;7.10;88.16
32733;BME280;11867;51.198;11.966;2023-05-03T01:41:55;101626.78;;;7.36;86.86
32733;BME280;11867;51.198;11.966;2023-05-03T01:42:58;101628.28;;;7.32;86.28
32733;BME280;11867;51.198;11.966;2023-05-03T01:44:02;101624.59;;;6.21;90.63
32733;BME280;11867;51.198;11.966;2023-05-03T01:45:05;101631.00;;;5.50;95.21
32733;BME280;11867;51.198;11.966;2023-05-03T01:46:08;101635.09;;;5.20;98.45
32733;BME280;11867;51.198;11.966;2023-05-03T01:47:11;101627.38;;;5.24;98.85
32733;BME280;11867;51.198;11.966;2023-05-03T01:48:17;101629.66;;;5.72;98.14
32733;BME280;11867;51.198;11.966;2023-05-03T01:49:19;101628.06;;;5.64;96.99
32733;BME280;11867;51.198;11.966;2023-05-03T01:50:22;101628.84;;;6.10;95.73
32733;BME280;11867;51.198;11.966;2023-05-03T01:51:24;101625.25;;;6.41;93.79
32733;BME280;11867;51.198;11.966;2023-05-03T01:52:28;101627.44;;;6.76;91.51
32733;BME280;11867;51.198;11.966;2023-05-03T01:53:30;101624.75;;;6.95;89.69
32733;BME280;11867;51.198;11.966;2023-05-03T01:54:33;101628.72;;;6.92;88.90
32733;BME280;11867;51.198;11.966;2023-05-03T01:55:35;101620.16;;;6.95;88.58
32733;BME280;11867;51.198;11.966;2023-05-03T01:56:39;101625.72;;;7.19;87.32
32733;BME280;11867;51.198;11.966;2023-05-03T01:57:41;101627.22;;;7.33;86.50
32733;BME280;11867;51.198;11.966;2023-05-03T01:58:44;101628.44;;;7.19;86.42
32733;BME280;11867;51.198;11.966;2023-05-03T01:59:46;101632.97;;;7.25;86.45
32733;BME280;11867;51.198;11.966;2023-05-03T02:00:49;101632.94;;;7.43;85.70
32733;BME280;11867;51.198;11.966;2023-05-03T02:01:51;101631.00;;;7.32;85.90
32733;BME280;11867;51.198;11.966;2023-05-03T02:02:54;101633.72;;;7.32;85.13
32733;BME280;11867;51.198;11.966;2023-05-03T02:03:56;101631.41;;;7.17;85.75
32733;BME280;11867;51.198;11.966;2023-05-03T02:04:59;101634.31;;;7.16;85.23
32733;BME280;11867;51.198;11.966;2023-05-03T02:06:01;101631.72;;;6.84;86.56
32733;BME280;11867;51.198;11.966;2023-05-03T02:07:04;101638.50;;;6.75;87.00
32733;BME280;11867;51.198;11.966;2023-05-03T02:08:06;101625.38;;;6.97;87.04
32733;BME280;11867;51.198;11.966;2023-05-03T02:09:08;101629.34;;;6.94;86.98
32733;BME280;11867;51.198;11.966;2023-05-03T02:10:11;101632.75;;;6.64;87.87
32733;BME280;11867;51.198;11.966;2023-05-03T02:11:15;101639.28;;;6.57;88.30
32733;BME280;11867;51.198;11.966;2023-05-03T02:12:18;101627.09;;;6.91;87.62
32733;BME280;11867;51.198;11.966;2023-05-03T02:13:21;101631.09;;;7.07;86.94
32733;BME280;11867;51.198;11.966;2023-05-03T02:14:23;101628.00;;;7.22;86.10
32733;BME280;11867;51.198;11.966;2023-05-03T02:15:26;101636.13;;;7.40;85.14
32733;BME280;11867;51.198;11.966;2023-05-03T02:16:28;101634.91;;;7.55;84.09
32733;BME280;11867;51.198;11.966;2023-05-03T02:17:31;101627.38;;;7.57;83.43
32733;BME280;11867;51.198;11.966;2023-05-03T02:18:32;101634.31;;;7.34;84.57
32733;BME280;11867;51.198;11.966;2023-05-03T02:19:36;101633.25;;;7.17;85.44
32733;BME280;11867;51.198;11.966;2023-05-03T02:20:38;101630.09;;;7.20;85.21
32733;BME280;11867;51.198;11.966;2023-05-03T02:21:40;101639.88;;;7.39;85.15
32733;BME280;11867;51.198;11.966;2023-05-03T02:22:42;101636.84;;;7.47;84.74
32733;BME280;11867;51.198;11.966;2023-05-03T02:23:45;101642.38;;;7.41;84.33
32733;BME280;11867;51.198;11.966;2023-05-03T02:24:47;101634.06;;;7.36;84.98
32733;BME280;11867;51.198;11.966;2023-05-03T02:25:50;101639.13;;;7.51;84.59
32733;BME280;11867;51.198;11.966;2023-05-03T02:26:52;101634.13;;;7.66;83.70
32733;BME280;11867;51.198;11.966;2023-05-03T02:27:56;101637.72;;;7.78;83.66
32733;BME280;11867;51.198;11.966;2023-05-03T02:28:58;101638.91;;;7.82;83.00
32733;BME280;11867;51.198;11.966;2023-05-03T02:30:01;101642.34;;;7.89;82.46
32733;BME280;11867;51.198;11.966;2023-05-03T02:31:03;101644.72;;;7.98;82.13
32733;BME280;11867;51.198;11.966;2023-05-03T02:32:07;101647.31;;;7.93;82.27
32733;BME280;11867;51.198;11.966;2023-05-03T02:33:09;101645.75;;;7.85;82.57
32733;BME280;11867;51.198;11.966;2023-05-03T02:34:12;101635.28;;;7.88;82.78
32733;BME280;11867;51.198;11.966;2023-05-03T02:35:14;101638.78;;;7.77;82.76
32733;BME280;11867;51.198;11.966;2023-05-03T02:36:16;101647.66;;;7.84;82.83
32733;BME280;11867;51.198;11.966;2023-05-03T02:37:18;101639.53;;;7.66;83.25
32733;BME280;11867;51.198;11.966;2023-05-03T02:38:22;101652.47;;;7.82;83.51
32733;BME280;11867;51.198;11.966;2023-05-03T02:39:24;101648.13;;;7.81;83.01
32733;BME280;11867;51.198;11.966;2023-05-03T02:40:26;101651.69;;;7.94;82.67
32733;BME280;11867;51.198;11.966;2023-05-03T02:41:28;101655.38;;;7.99;82.21
32733;BME280;11867;51.198;11.966;2023-05-03T02:42:31;101652.00;;;8.16;81.78
32733;BME280;11867;51.198;11.966;2023-05-03T02:43:34;101653.09;;;7.84;81.46
32733;BME280;11867;51.198;11.966;2023-05-03T02:44:37;101650.38;;;7.84;82.02
32733;BME280;11867;51.198;11.966;2023-05-03T02:45:39;101657.72;;;7.96;81.99
32733;BME280;11867;51.198;11.966;2023-05-03T02:46:42;101652.97;;;7.91;81.93
32733;BME280;11867;51.198;11.966;2023-05-03T02:47:44;101653.94;;;7.97;81.63
32733;BME280;11867;51.198;11.966;2023-05-03T02:48:47;101654.41;;;7.94;81.41
32733;BME280;11867;51.198;11.966;2023-05-03T02:49:49;101654.38;;;7.82;81.89
32733;BME280;11867;51.198;11.966;2023-05-03T02:50:52;101659.94;;;7.57;82.92
32733;BME280;11867;51.198;11.966;2023-05-03T02:51:55;101655.44;;;7.14;85.00
32733;BME280;11867;51.198;11.966;2023-05-03T02:52:58;101656.16;;;7.21;85.40
32733;BME280;11867;51.198;11.966;2023-05-03T02:54:00;101658.50;;;6.74;87.43
32733;BME280;11867;51.198;11.966;2023-05-03T02:55:04;101657.44;;;6.56;89.39
32733;BME280;11867;51.198;11.966;2023-05-03T02:56:06;101655.28;;;6.65;88.69
32733;BME280;11867;51.198;11.966;2023-05-03T02:57:28;101661.16;;;6.62;89.46
32733;BME280;11867;51.198;11.966;2023-05-03T02:58:50;101668.81;;;6.65;89.54
32733;BME280;11867;51.198;11.966;2023-05-03T03:00:12;101661.66;;;7.14;87.74
32733;BME280;11867;51.198;11.966;2023-05-03T03:01:36;101660.25;;;7.48;85.83
32733;BME280;11867;51.198;11.966;2023-05-03T03:02:58;101666.56;;;7.61;85.23
32733;BME280;11867;51.198;11.966;2023-05-03T03:04:21;101664.13;;;7.71;84.71
32733;BME280;11867;51.198;11.966;2023-05-03T03:05:43;101663.31;;;7.52;85.31
32733;BME280;11867;51.198;11.966;2023-05-03T03:07:06;101665.81;;;7.35;86.60
32733;BME280;11867;51.198;11.966;2023-05-03T03:08:29;101669.44;;;7.47;85.90
32733;BME280;11867;51.198;11.966;2023-05-03T03:09:52;101664.50;;;7.56;85.73
32733;BME280;11867;51.198;11.966;2023-05-03T03:11:15;101660.50;;;7.77;84.46
32733;BME280;11867;51.198;11.966;2023-05-03T03:12:38;101669.09;;;7.74;84.49
32733;BME280;11867;51.198;11.966;2023-05-03T03:14:02;101663.09;;;7.54;85.19
32733;BME280;11867;51.198;11.966;2023-05-03T03:15:24;101660.69;;;7.45;85.49
32733;BME280;11867;51.198;11.966;2023-05-03T03:16:49;101666.88;;;7.34;86.44
32733;BME280;11867;51.198;11.966;2023-05-03T03:18:11;101669.00;;;7.14;87.77
32733;BME280;11867;51.198;11.966;2023-05-03T03:19:34;101666.78;;;7.41;86.83
32733;BME280;11867;51.198;11.966;2023-05-03T03:20:56;101663.69;;;7.56;86.10
32733;BME280;11867;51.198;11.966;2023-05-03T03:22:19;101666.09;;;7.45;85.83
32733;BME280;11867;51.198;11.966;2023-05-03T03:23:41;101670.63;;;7.15;87.19
32733;BME280;11867;51.198;11.966;2023-05-03T03:25:05;101676.34;;;7.06;87.53
32733;BME280;11867;51.198;11.966;2023-05-03T03:26:27;101673.50;;;7.20;87.24
32733;BME280;11867;51.198;11.966;2023-05-03T03:27:50;101667.00;;;7.39;86.16
32733;BME280;11867;51.198;11.966;2023-05-03T03:29:14;101670.50;;;7.46;84.88
32733;BME280;11867;51.198;11.966;2023-05-03T03:30:37;101674.41;;;7.14;85.32
32733;BME280;11867;51.198;11.966;2023-05-03T03:31:59;101667.78;;;7.46;84.65
32733;BME280;11867;51.198;11.966;2023-05-03T03:33:21;101668.13;;;7.68;83.73
32733;BME280;11867;51.198;11.966;2023-05-03T03:34:46;101670.31;;;7.60;83.67
32733;BME280;11867;51.198;11.966;2023-05-03T03:36:09;101673.81;;;7.48;83.64
32733;BME280;11867;51.198;11.966;2023-05-03T03:37:32;101676.88;;;7.52;83.59
32733;BME280;11867;51.198;11.966;2023-05-03T03:38:54;101676.63;;;7.72;82.48
32733;BME280;11867;51.198;11.966;2023-05-03T03:40:17;101678.66;;;7.77;81.19
32733;BME280;11867;51.198;11.966;2023-05-03T03:41:38;101672.41;;;7.76;80.32
32733;BME280;11867;51.198;11.966;2023-05-03T03:43:01;101674.53;;;7.56;80.41
32733;BME280;11867;51.198;11.966;2023-05-03T03:44:26;101676.72;;;7.65;80.50
32733;BME280;11867;51.198;11.966;2023-05-03T03:45:48;101682.66;;;7.74;79.98
32733;BME280;11867;51.198;11.966;2023-05-03T03:47:11;101682.13;;;7.84;79.51
32733;BME280;11867;51.198;11.966;2023-05-03T03:48:35;101676.91;;;7.82;79.33
32733;BME280;11867;51.198;11.966;2023-05-03T03:49:57;101683.78;;;7.66;80.10
32733;BME280;11867;51.198;11.966;2023-05-03T03:51:20;101677.75;;;6.40;85.63
32733;BME280;11867;51.198;11.966;2023-05-03T03:52:43;101681.25;;;5.77;90.42
32733;BME280;11867;51.198;11.966;2023-05-03T03:54:06;101685.16;;;5.88;91.72
32733;BME280;11867;51.198;11.966;2023-05-03T03:55:28;101686.47;;;6.17;89.98
32733;BME280;11867;51.198;11.966;2023-05-03T03:56:51;101692.78;;;6.68;87.49
32733;BME280;11867;51.198;11.966;2023-05-03T03:58:13;101688.69;;;7.02;85.21
32733;BME280;11867;51.198;11.966;2023-05-03T03:59:38;101693.22;;;7.08;83.68
32733;BME280;11867;51.198;11.966;2023-05-03T04:01:01;101701.00;;;6.80;84.46
32733;BME280;11867;51.198;11.966;2023-05-03T04:02:24;101690.16;;;6.80;84.61
32733;BME280;11867;51.198;11.966;2023-05-03T04:03:47;101698.63;;;6.90;84.58
32733;BME280;11867;51.198;11.966;2023-05-03T04:05:09;101698.34;;;7.17;83.04
32733;BME280;11867;51.198;11.966;2023-05-03T04:06:32;101699.56;;;7.39;81.98
32733;BME280;11867;51.198;11.966;2023-05-03T04:07:54;101694.38;;;7.56;81.22
32733;BME280;11867;51.198;11.966;2023-05-03T04:09:17;101699.97;;;7.61;80.62
32733;BME280;11867;51.198;11.966;2023-05-03T04:10:39;101698.22;;;7.67;79.67
32733;BME280;11867;51.198;11.966;2023-05-03T04:12:02;101700.09;;;7.66;79.05
32733;BME280;11867;51.198;11.966;2023-05-03T04:13:25;101697.97;;;7.68;79.31
32733;BME280;11867;51.198;11.966;2023-05-03T04:14:49;101708.16;;;7.73;78.52
32733;BME280;11867;51.198;11.966;2023-05-03T04:16:12;101707.63;;;7.64;78.79
32733;BME280;11867;51.198;11.966;2023-05-03T04:17:36;101710.28;;;7.71;78.31
32733;BME280;11867;51.198;11.966;2023-05-03T04:18:58;101703.88;;;7.65;78.66
32733;BME280;11867;51.198;11.966;2023-05-03T04:20:20;101711.84;;;7.60;78.91
32733;BME280;11867;51.198;11.966;2023-05-03T04:21:44;101719.78;;;7.62;78.63
32733;BME280;11867;51.198;11.966;2023-05-03T04:23:08;101720.56;;;7.51;78.93
32733;BME280;11867;51.198;11.966;2023-05-03T04:24:30;101724.22;;;7.38;79.13
32733;BME280;11867;51.198;11.966;2023-05-03T04:25:52;101723.69;;;7.47;79.37
32733;BME280;11867;51.198;11.966;2023-05-03T04:27:16;101719.56;;;7.63;78.82
32733;BME280;11867;51.198;11.966;2023-05-03T04:28:38;101712.41;;;7.51;78.72
32733;BME280;11867;51.198;11.966;2023-05-03T04:30:03;101721.66;;;7.61;78.70
32733;BME280;11867;51.198;11.966;2023-05-03T04:31:27;101725.06;;;7.75;77.52
32733;BME280;11867;51.198;11.966;2023-05-03T04:32:50;101724.50;;;7.85;77.08
32733;BME280;11867;51.198;11.966;2023-05-03T04:34:15;101723.56;;;7.79;77.80
32733;BME280;11867;51.198;11.966;2023-05-03T04:35:39;101727.81;;;7.87;77.24
32733;BME280;11867;51.198;11.966;2023-05-03T04:37:02;101728.94;;;7.98;77.07
32733;BME280;11867;51.198;11.966;2023-05-03T04:38:25;101730.22;;;7.95;76.90
32733;BME280;11867;51.198;11.966;2023-05-03T04:39:48;101727.72;;;7.94;76.58
32733;BME280;11867;51.198;11.966;2023-05-03T04:41:11;101733.81;;;7.77;77.19
32733;BME280;11867;51.198;11.966;2023-05-03T04:42:37;101741.66;;;7.85;77.35
32733;BME280;11867;51.198;11.966;2023-05-03T04:44:00;101742.09;;;7.82;76.88
32733;BME280;11867;51.198;11.966;2023-05-03T04:45:25;101746.53;;;7.77;77.38
32733;BME280;11867;51.198;11.966;2023-05-03T04:46:48;101750.84;;;7.84;76.78
32733;BME280;11867;51.198;11.966;2023-05-03T04:48:11;101745.56;;;7.71;76.50
32733;BME280;11867;51.198;11.966;2023-05-03T04:49:35;101757.56;;;7.45;77.33
32733;BME280;11867;51.198;11.966;2023-05-03T04:50:57;101746.47;;;7.65;76.60
32733;BME280;11867;51.198;11.966;2023-05-03T04:52:20;101746.31;;;7.78;76.33
32733;BME280;11867;51.198;11.966;2023-05-03T04:53:43;101739.06;;;7.91;76.11
32733;BME280;11867;51.198;11.966;2023-05-03T04:55:07;101740.66;;;7.98;75.71
32733;BME280;11867;51.198;11.966;2023-05-03T04:56:30;101741.09;;;7.95;75.49
32733;BME280;11867;51.198;11.966;2023-05-03T04:57:56;101743.75;;;7.83;76.63
32733;BME280;11867;51.198;11.966;2023-05-03T04:59:18;101747.72;;;7.99;75.90
32733;BME280;11867;51.198;11.966;2023-05-03T05:00:44;101745.22;;;7.98;76.07
32733;BME280;11867;51.198;11.966;2023-05-03T05:02:10;101740.16;;;8.01;75.30
32733;BME280;11867;51.198;11.966;2023-05-03T05:03:33;101743.53;;;8.15;75.10
32733;BME280;11867;51.198;11.966;2023-05-03T05:04:56;101752.41;;;8.22;74.81
32733;BME280;11867;51.198;11.966;2023-05-03T05:06:18;101750.72;;;8.40;74.10
32733;BME280;11867;51.198;11.966;2023-05-03T05:07:41;101754.06;;;8.42;74.06
32733;BME280;11867;51.198;11.966;2023-05-03T05:09:05;101754.81;;;8.31;73.86
32733;BME280;11867;51.198;11.966;2023-05-03T05:10:28;101761.78;;;8.26;74.38
32733;BME280;11867;51.198;11.966;2023-05-03T05:11:51;101759.81;;;8.34;74.07
32733;BME280;11867;51.198;11.966;2023-05-03T05:13:17;101763.88;;;8.43;73.38
32733;BME280;11867;51.198;11.966;2023-05-03T05:14:40;101766.00;;;8.41;73.50
32733;BME280;11867;51.198;11.966;2023-05-03T05:16:05;101758.03;;;8.09;73.97
32733;BME280;11867;51.198;11.966;2023-05-03T05:17:28;101768.63;;;7.99;74.93
32733;BME280;11867;51.198;11.966;2023-05-03T05:18:51;101761.69;;;8.03;74.74
32733;BME280;11867;51.198;11.966;2023-05-03T05:20:14;101756.47;;;8.01;74.73
32733;BME280;11867;51.198;11.966;2023-05-03T05:21:39;101755.31;;;8.09;74.58
32733;BME280;11867;51.198;11.966;2023-05-03T05:23:02;101766.25;;;8.21;74.33
32733;BME280;11867;51.198;11.966;2023-05-03T05:24:25;101756.94;;;8.28;74.57
32733;BME280;11867;51.198;11.966;2023-05-03T05:25:48;101759.66;;;8.28;75.28
32733;BME280;11867;51.198;11.966;2023-05-03T05:27:11;101750.69;;;8.28;75.31
32733;BME280;11867;51.198;11.966;2023-05-03T05:28:34;101754.53;;;8.20;74.59
32733;BME280;11867;51.198;11.966;2023-05-03T05:29:58;101761.56;;;7.79;76.59
32733;BME280;11867;51.198;11.966;2023-05-03T05:31:23;101764.09;;;7.93;77.04
32733;BME280;11867;51.198;11.966;2023-05-03T05:32:46;101761.06;;;8.01;76.43
32733;BME280;11867;51.198;11.966;2023-05-03T05:34:09;101770.72;;;8.15;75.68
32733;BME280;11867;51.198;11.966;2023-05-03T05:35:32;101767.53;;;8.18;75.27
32733;BME280;11867;51.198;11.966;2023-05-03T05:36:56;101770.34;;;8.12;76.17
32733;BME280;11867;51.198;11.966;2023-05-03T05:38:18;101766.25;;;8.21;76.17
32733;BME280;11867;51.198;11.966;2023-05-03T05:39:41;101778.31;;;8.25;75.80
32733;BME280;11867;51.198;11.966;2023-05-03T05:41:04;101774.44;;;8.33;75.33
32733;BME280;11867;51.198;11.966;2023-05-03T05:42:27;101777.06;;;8.09;76.44
32733;BME280;11867;51.198;11.966;2023-05-03T05:43:50;101771.41;;;8.11;77.31
32733;BME280;11867;51.198;11.966;2023-05-03T05:45:14;101773.75;;;8.07;76.47
32733;BME280;11867;51.198;11.966;2023-05-03T05:46:38;101780.47;;;8.35;76.33
32733;BME280;11867;51.198;11.966;2023-05-03T05:48:02;101771.47;;;8.53;75.40
32733;BME280;11867;51.198;11.966;2023-05-03T05:49:25;101774.91;;;8.60;75.33
32733;BME280;11867;51.198;11.966;2023-05-03T05:50:47;101773.97;;;8.66;74.50
32733;BME280;11867;51.198;11.966;2023-05-03T05:52:10;101777.63;;;8.29;75.02
32733;BME280;11867;51.198;11.966;2023-05-03T05:53:33;101777.31;;;8.38;75.31
32733;BME280;11867;51.198;11.966;2023-05-03T05:54:56;101774.13;;;8.41;74.45
32733;BME280;11867;51.198;11.966;2023-05-03T05:56:19;101781.84;;;8.44;74.78
32733;BME280;11867;51.198;11.966;2023-05-03T05:57:42;101780.34;;;8.29;74.97
32733;BME280;11867;51.198;11.966;2023-05-03T05:59:05;101781.25;;;8.23;76.30
32733;BME280;11867;51.198;11.966;2023-05-03T06:00:28;101774.09;;;8.29;76.45
32733;BME280;11867;51.198;11.966;2023-05-03T06:01:52;101778.34;;;8.37;75.19
32733;BME280;11867;51.198;11.966;2023-05-03T06:03:15;101771.03;;;7.88;75.29
32733;BME280;11867;51.198;11.966;2023-05-03T06:04:38;101789.22;;;7.88;76.43
32733;BME280;11867;51.198;11.966;2023-05-03T06:06:01;101782.66;;;7.96;75.93
32733;BME280;11867;51.198;11.966;2023-05-03T06:07:24;101776.31;;;8.02;74.28
32733;BME280;11867;51.198;11.966;2023-05-03T06:08:47;101781.44;;;7.92;74.43
32733;BME280;11867;51.198;11.966;2023-05-03T06:10:12;101787.56;;;7.68;74.73
32733;BME280;11867;51.198;11.966;2023-05-03T06:11:35;101789.44;;;7.86;74.31
32733;BME280;11867;51.198;11.966;2023-05-03T06:12:58;101788.25;;;8.01;74.97
32733;BME280;11867;51.198;11.966;2023-05-03T06:14:21;101776.19;;;8.27;74.37
32733;BME280;11867;51.198;11.966;2023-05-03T06:15:44;101777.56;;;8.18;74.14
32733;BME280;11867;51.198;11.966;2023-05-03T06:17:08;101781.78;;;7.83;73.90
32733;BME280;11867;51.198;11.966;2023-05-03T06:18:31;101778.97;;;7.72;75.36
32733;BME280;11867;51.198;11.966;2023-05-03T06:19:55;101787.94;;;7.72;76.39
32733;BME280;11867;51.198;11.966;2023-05-03T06:21:18;101783.34;;;7.91;75.61